sensor_id;sensor_type;location;lat;lon;timestamp;P1;durP1;ratioP1;P2;durP2;ratioP2
26277;SDS011;14000;52.056;8.510;2024-01-11T00:00:42;80.32;;;32.10;;
26277;SDS011;14000;52.056;8.510;2024-01-11T00:03:07;81.57;;;32.47;;
26277;SDS011;14000;52.056;8.510;2024-01-11T00:05:33;83.00;;;32.70;;
26277;SDS011;14000;52.056;8.510;2024-01-11T00:07:58;81.47;;;32.23;;
26277;SDS011;14000;52.056;8.510;2024-01-11T00:10:24;80.43;;;33.53;;
26277;SDS011;14000;52.056;8.510;2024-01-11T00:12:50;74.97;;;31.53;;
26277;SDS011;14000;52.056;8.510;2024-01-11T00:15:15;82.50;;;33.33;;
26277;SDS011;14000;52.056;8.510;2024-01-11T00:17:41;78.60;;;32.10;;
26277;SDS011;14000;52.056;8.510;2024-01-11T00:20:06;79.90;;;32.03;;
26277;SDS011;14000;52.056;8.510;2024-01-11T00:22:32;82.18;;;33.40;;
26277;SDS011;14000;52.056;8.510;2024-01-11T00:24:58;90.43;;;34.97;;
26277;SDS011;14000;52.056;8.510;2024-01-11T00:27:23;72.00;;;33.10;;
26277;SDS011;14000;52.056;8.510;2024-01-11T00:29:49;87.13;;;32.97;;
26277;SDS011;14000;52.056;8.510;2024-01-11T00:32:14;78.77;;;31.93;;
26277;SDS011;14000;52.056;8.510;2024-01-11T00:34:40;74.53;;;30.33;;
26277;SDS011;14000;52.056;8.510;2024-01-11T00:37:06;82.30;;;32.20;;
26277;SDS011;14000;52.056;8.510;2024-01-11T00:39:31;78.23;;;31.87;;
26277;SDS011;14000;52.056;8.510;2024-01-11T00:41:57;76.93;;;31.97;;
26277;SDS011;14000;52.056;8.510;2024-01-11T00:44:22;70.80;;;30.57;;
26277;SDS011;14000;52.056;8.510;2024-01-11T00:46:48;76.00;;;30.70;;
26277;SDS011;14000;52.056;8.510;2024-01-11T00:49:14;68.67;;;30.23;;
26277;SDS011;14000;52.056;8.510;2024-01-11T00:51:39;69.10;;;28.77;;
26277;SDS011;14000;52.056;8.510;2024-01-11T00:54:05;75.00;;;31.10;;
26277;SDS011;14000;52.056;8.510;2024-01-11T00:56:31;80.05;;;30.40;;
26277;SDS011;14000;52.056;8.510;2024-01-11T00:58:56;72.00;;;30.83;;
26277;SDS011;14000;52.056;8.510;2024-01-11T01:01:22;71.63;;;29.90;;
26277;SDS011;14000;52.056;8.510;2024-01-11T01:03:47;73.27;;;30.60;;
26277;SDS011;14000;52.056;8.510;2024-01-11T01:06:13;77.10;;;30.23;;
26277;SDS011;14000;52.056;8.510;2024-01-11T01:08:39;74.40;;;30.77;;
26277;SDS011;14000;52.056;8.510;2024-01-11T01:11:04;80.53;;;32.93;;
26277;SDS011;14000;52.056;8.510;2024-01-11T01:13:30;70.83;;;29.10;;
26277;SDS011;14000;52.056;8.510;2024-01-11T01:15:55;74.07;;;31.33;;
26277;SDS011;14000;52.056;8.510;2024-01-11T01:18:21;79.17;;;32.07;;
26277;SDS011;14000;52.056;8.510;2024-01-11T01:20:46;77.53;;;31.73;;
26277;SDS011;14000;52.056;8.510;2024-01-11T01:23:12;74.57;;;30.97;;
26277;SDS011;14000;52.056;8.510;2024-01-11T01:25:38;79.40;;;33.00;;
26277;SDS011;14000;52.056;8.510;2024-01-11T01:28:03;77.20;;;30.90;;
26277;SDS011;14000;52.056;8.510;2024-01-11T01:30:29;78.27;;;31.23;;
26277;SDS011;14000;52.056;8.510;2024-01-11T01:32:54;65.20;;;27.63;;
26277;SDS011;14000;52.056;8.510;2024-01-11T01:35:21;78.30;;;29.23;;
26277;SDS011;14000;52.056;8.510;2024-01-11T01:37:46;77.10;;;29.93;;
26277;SDS011;14000;52.056;8.510;2024-01-11T01:40:12;81.00;;;32.90;;
26277;SDS011;14000;52.056;8.510;2024-01-11T01:42:44;70.30;;;29.43;;
26277;SDS011;14000;52.056;8.510;2024-01-11T01:45:11;72.22;;;30.45;;
26277;SDS011;14000;52.056;8.510;2024-01-11T01:47:37;77.85;;;30.65;;
26277;SDS011;14000;52.056;8.510;2024-01-11T01:50:07;78.57;;;31.92;;
26277;SDS011;14000;52.056;8.510;2024-01-11T01:52:34;72.80;;;31.17;;
26277;SDS011;14000;52.056;8.510;2024-01-11T01:55:02;78.40;;;30.73;;
26277;SDS011;14000;52.056;8.510;2024-01-11T01:57:29;72.45;;;29.95;;
26277;SDS011;14000;52.056;8.510;2024-01-11T01:59:57;76.40;;;30.67;;
26277;SDS011;14000;52.056;8.510;2024-01-11T02:02:22;74.07;;;30.63;;
26277;SDS011;14000;52.056;8.510;2024-01-11T02:04:49;73.35;;;30.23;;
26277;SDS011;14000;52.056;8.510;2024-01-11T02:07:15;72.60;;;28.83;;
26277;SDS011;14000;52.056;8.510;2024-01-11T02:09:41;72.85;;;29.88;;
26277;SDS011;14000;52.056;8.510;2024-01-11T02:12:08;77.35;;;29.80;;
26277;SDS011;14000;52.056;8.510;2024-01-11T02:14:37;71.85;;;29.30;;
26277;SDS011;14000;52.056;8.510;2024-01-11T02:17:02;73.38;;;28.83;;
26277;SDS011;14000;52.056;8.510;2024-01-11T02:19:28;78.40;;;30.30;;
26277;SDS011;14000;52.056;8.510;2024-01-11T02:21:54;73.13;;;31.07;;
26277;SDS011;14000;52.056;8.510;2024-01-11T02:24:20;78.38;;;32.15;;
26277;SDS011;14000;52.056;8.510;2024-01-11T02:27:02;85.10;;;33.00;;
26277;SDS011;14000;52.056;8.510;2024-01-11T02:29:29;73.68;;;29.17;;
26277;SDS011;14000;52.056;8.510;2024-01-11T02:31:55;70.50;;;29.67;;
26277;SDS011;14000;52.056;8.510;2024-01-11T02:34:24;79.32;;;32.33;;
26277;SDS011;14000;52.056;8.510;2024-01-11T02:36:52;75.95;;;31.35;;
26277;SDS011;14000;52.056;8.510;2024-01-11T02:39:19;81.35;;;32.42;;
26277;SDS011;14000;52.056;8.510;2024-01-11T02:41:45;75.97;;;30.08;;
26277;SDS011;14000;52.056;8.510;2024-01-11T02:44:12;82.38;;;30.73;;
26277;SDS011;14000;52.056;8.510;2024-01-11T02:46:38;78.87;;;30.80;;
26277;SDS011;14000;52.056;8.510;2024-01-11T02:49:03;78.83;;;31.97;;
26277;SDS011;14000;52.056;8.510;2024-01-11T02:51:29;71.67;;;31.20;;
26277;SDS011;14000;52.056;8.510;2024-01-11T02:53:54;73.37;;;31.33;;
26277;SDS011;14000;52.056;8.510;2024-01-11T02:56:20;77.43;;;29.37;;
26277;SDS011;14000;52.056;8.510;2024-01-11T02:58:45;69.47;;;29.57;;
26277;SDS011;14000;52.056;8.510;2024-01-11T03:01:11;70.47;;;28.97;;
26277;SDS011;14000;52.056;8.510;2024-01-11T03:03:36;65.03;;;29.13;;
26277;SDS011;14000;52.056;8.510;2024-01-11T03:06:02;76.33;;;30.20;;
26277;SDS011;14000;52.056;8.510;2024-01-11T03:08:28;77.13;;;30.65;;
26277;SDS011;14000;52.056;8.510;2024-01-11T03:10:54;78.47;;;30.70;;
26277;SDS011;14000;52.056;8.510;2024-01-11T03:13:20;71.40;;;30.40;;
26277;SDS011;14000;52.056;8.510;2024-01-11T03:15:46;73.82;;;29.60;;
26277;SDS011;14000;52.056;8.510;2024-01-11T03:18:11;69.67;;;29.17;;
26277;SDS011;14000;52.056;8.510;2024-01-11T03:20:37;74.17;;;28.17;;
26277;SDS011;14000;52.056;8.510;2024-01-11T03:23:02;85.57;;;31.40;;
26277;SDS011;14000;52.056;8.510;2024-01-11T03:25:29;68.37;;;30.03;;
26277;SDS011;14000;52.056;8.510;2024-01-11T03:27:54;68.82;;;30.98;;
26277;SDS011;14000;52.056;8.510;2024-01-11T03:30:20;65.17;;;29.20;;
26277;SDS011;14000;52.056;8.510;2024-01-11T03:32:46;72.33;;;29.70;;
26277;SDS011;14000;52.056;8.510;2024-01-11T03:35:11;66.37;;;29.23;;
26277;SDS011;14000;52.056;8.510;2024-01-11T03:37:38;76.10;;;30.38;;
26277;SDS011;14000;52.056;8.510;2024-01-11T03:40:03;65.47;;;28.60;;
26277;SDS011;14000;52.056;8.510;2024-01-11T03:42:29;73.65;;;30.10;;
26277;SDS011;14000;52.056;8.510;2024-01-11T03:44:55;70.47;;;29.73;;
26277;SDS011;14000;52.056;8.510;2024-01-11T03:47:20;70.57;;;28.67;;
26277;SDS011;14000;52.056;8.510;2024-01-11T03:49:46;71.33;;;30.30;;
26277;SDS011;14000;52.056;8.510;2024-01-11T03:52:12;72.10;;;28.97;;
26277;SDS011;14000;52.056;8.510;2024-01-11T03:54:37;82.53;;;29.90;;
26277;SDS011;14000;52.056;8.510;2024-01-11T03:57:03;72.47;;;29.60;;
26277;SDS011;14000;52.056;8.510;2024-01-11T03:59:29;82.20;;;29.90;;
26277;SDS011;14000;52.056;8.510;2024-01-11T04:01:55;79.17;;;30.97;;
26277;SDS011;14000;52.056;8.510;2024-01-11T04:04:21;77.50;;;30.55;;
26277;SDS011;14000;52.056;8.510;2024-01-11T04:06:47;68.15;;;28.52;;
26277;SDS011;14000;52.056;8.510;2024-01-11T04:09:13;72.22;;;27.15;;
26277;SDS011;14000;52.056;8.510;2024-01-11T04:11:38;70.90;;;28.17;;
26277;SDS011;14000;52.056;8.510;2024-01-11T04:14:04;73.13;;;28.43;;
26277;SDS011;14000;52.056;8.510;2024-01-11T04:16:30;73.20;;;28.27;;
26277;SDS011;14000;52.056;8.510;2024-01-11T04:18:55;72.73;;;27.63;;
26277;SDS011;14000;52.056;8.510;2024-01-11T04:21:24;69.23;;;25.90;;
26277;SDS011;14000;52.056;8.510;2024-01-11T04:23:54;68.57;;;28.88;;
26277;SDS011;14000;52.056;8.510;2024-01-11T04:26:20;65.47;;;26.48;;
26277;SDS011;14000;52.056;8.510;2024-01-11T04:28:46;69.73;;;27.60;;
26277;SDS011;14000;52.056;8.510;2024-01-11T04:31:12;68.50;;;27.70;;
26277;SDS011;14000;52.056;8.510;2024-01-11T04:33:42;75.45;;;28.83;;
26277;SDS011;14000;52.056;8.510;2024-01-11T04:36:11;71.10;;;28.13;;
26277;SDS011;14000;52.056;8.510;2024-01-11T04:38:38;70.88;;;28.77;;
26277;SDS011;14000;52.056;8.510;2024-01-11T04:41:09;71.70;;;28.10;;
26277;SDS011;14000;52.056;8.510;2024-01-11T04:43:45;66.50;;;28.40;;
26277;SDS011;14000;52.056;8.510;2024-01-11T04:46:14;66.68;;;28.00;;
26277;SDS011;14000;52.056;8.510;2024-01-11T04:48:44;70.70;;;27.00;;
26277;SDS011;14000;52.056;8.510;2024-01-11T04:51:11;65.43;;;27.23;;
26277;SDS011;14000;52.056;8.510;2024-01-11T04:53:38;64.97;;;26.55;;
26277;SDS011;14000;52.056;8.510;2024-01-11T04:56:04;69.20;;;28.25;;
26277;SDS011;14000;52.056;8.510;2024-01-11T04:58:31;66.38;;;25.60;;
26277;SDS011;14000;52.056;8.510;2024-01-11T05:00:57;61.93;;;25.53;;
26277;SDS011;14000;52.056;8.510;2024-01-11T05:03:22;61.30;;;25.63;;
26277;SDS011;14000;52.056;8.510;2024-01-11T05:05:48;63.90;;;27.53;;
26277;SDS011;14000;52.056;8.510;2024-01-11T05:08:13;75.57;;;28.97;;
26277;SDS011;14000;52.056;8.510;2024-01-11T05:10:39;64.70;;;26.33;;
26277;SDS011;14000;52.056;8.510;2024-01-11T05:13:04;67.43;;;26.33;;
26277;SDS011;14000;52.056;8.510;2024-01-11T05:15:30;69.87;;;28.30;;
26277;SDS011;14000;52.056;8.510;2024-01-11T05:17:56;68.63;;;27.70;;
26277;SDS011;14000;52.056;8.510;2024-01-11T05:20:24;63.05;;;25.70;;
26277;SDS011;14000;52.056;8.510;2024-01-11T05:22:49;69.20;;;27.90;;
26277;SDS011;14000;52.056;8.510;2024-01-11T05:25:15;58.50;;;25.87;;
26277;SDS011;14000;52.056;8.510;2024-01-11T05:27:41;66.37;;;26.80;;
26277;SDS011;14000;52.056;8.510;2024-01-11T05:30:06;74.30;;;30.67;;
26277;SDS011;14000;52.056;8.510;2024-01-11T05:32:32;71.30;;;29.50;;
26277;SDS011;14000;52.056;8.510;2024-01-11T05:34:58;68.40;;;28.03;;
26277;SDS011;14000;52.056;8.510;2024-01-11T05:37:23;70.33;;;29.13;;
26277;SDS011;14000;52.056;8.510;2024-01-11T05:39:49;74.37;;;28.00;;
26277;SDS011;14000;52.056;8.510;2024-01-11T05:42:15;62.17;;;27.57;;
26277;SDS011;14000;52.056;8.510;2024-01-11T05:44:40;70.73;;;28.83;;
26277;SDS011;14000;52.056;8.510;2024-01-11T05:47:06;126.00;;;48.50;;
26277;SDS011;14000;52.056;8.510;2024-01-11T05:49:31;104.57;;;40.07;;
26277;SDS011;14000;52.056;8.510;2024-01-11T05:51:57;88.83;;;33.33;;
26277;SDS011;14000;52.056;8.510;2024-01-11T05:54:23;80.10;;;32.07;;
26277;SDS011;14000;52.056;8.510;2024-01-11T05:56:49;86.28;;;33.45;;
26277;SDS011;14000;52.056;8.510;2024-01-11T05:59:17;74.72;;;28.15;;
26277;SDS011;14000;52.056;8.510;2024-01-11T06:01:42;74.47;;;31.00;;
26277;SDS011;14000;52.056;8.510;2024-01-11T06:04:08;78.90;;;30.93;;
26277;SDS011;14000;52.056;8.510;2024-01-11T06:06:34;71.03;;;29.80;;
26277;SDS011;14000;52.056;8.510;2024-01-11T06:08:59;62.80;;;26.43;;
26277;SDS011;14000;52.056;8.510;2024-01-11T06:11:25;62.23;;;26.67;;
26277;SDS011;14000;52.056;8.510;2024-01-11T06:13:50;67.13;;;28.10;;
26277;SDS011;14000;52.056;8.510;2024-01-11T06:16:16;60.97;;;25.47;;
26277;SDS011;14000;52.056;8.510;2024-01-11T06:18:41;66.17;;;28.03;;
26277;SDS011;14000;52.056;8.510;2024-01-11T06:21:07;71.77;;;28.67;;
26277;SDS011;14000;52.056;8.510;2024-01-11T06:23:33;63.57;;;26.50;;
26277;SDS011;14000;52.056;8.510;2024-01-11T06:25:58;71.93;;;28.03;;
26277;SDS011;14000;52.056;8.510;2024-01-11T06:28:24;69.15;;;27.92;;
26277;SDS011;14000;52.056;8.510;2024-01-11T06:30:50;65.67;;;26.47;;
26277;SDS011;14000;52.056;8.510;2024-01-11T06:33:15;63.20;;;26.57;;
26277;SDS011;14000;52.056;8.510;2024-01-11T06:35:41;62.40;;;26.20;;
26277;SDS011;14000;52.056;8.510;2024-01-11T06:38:07;65.00;;;26.43;;
26277;SDS011;14000;52.056;8.510;2024-01-11T06:40:32;63.17;;;26.63;;
26277;SDS011;14000;52.056;8.510;2024-01-11T06:42:58;63.70;;;26.20;;
26277;SDS011;14000;52.056;8.510;2024-01-11T06:45:23;65.47;;;26.40;;
26277;SDS011;14000;52.056;8.510;2024-01-11T06:47:49;64.63;;;26.67;;
26277;SDS011;14000;52.056;8.510;2024-01-11T06:50:15;62.93;;;25.70;;
26277;SDS011;14000;52.056;8.510;2024-01-11T06:52:40;64.93;;;26.37;;
26277;SDS011;14000;52.056;8.510;2024-01-11T06:55:06;57.60;;;24.10;;
26277;SDS011;14000;52.056;8.510;2024-01-11T06:57:32;59.75;;;25.70;;
26277;SDS011;14000;52.056;8.510;2024-01-11T06:59:57;60.73;;;26.17;;
26277;SDS011;14000;52.056;8.510;2024-01-11T07:02:23;64.47;;;25.70;;
26277;SDS011;14000;52.056;8.510;2024-01-11T07:04:48;68.33;;;25.83;;
26277;SDS011;14000;52.056;8.510;2024-01-11T07:07:14;64.70;;;26.80;;
26277;SDS011;14000;52.056;8.510;2024-01-11T07:09:39;76.17;;;30.77;;
26277;SDS011;14000;52.056;8.510;2024-01-11T07:12:05;84.70;;;33.00;;
26277;SDS011;14000;52.056;8.510;2024-01-11T07:14:31;84.60;;;33.53;;
26277;SDS011;14000;52.056;8.510;2024-01-11T07:16:57;68.20;;;27.47;;
26277;SDS011;14000;52.056;8.510;2024-01-11T07:19:22;66.27;;;27.60;;
26277;SDS011;14000;52.056;8.510;2024-01-11T07:21:48;68.73;;;29.43;;
26277;SDS011;14000;52.056;8.510;2024-01-11T07:24:14;70.23;;;28.53;;
26277;SDS011;14000;52.056;8.510;2024-01-11T07:26:40;58.70;;;25.00;;
26277;SDS011;14000;52.056;8.510;2024-01-11T07:29:06;61.03;;;25.73;;
26277;SDS011;14000;52.056;8.510;2024-01-11T07:31:31;65.47;;;26.40;;
26277;SDS011;14000;52.056;8.510;2024-01-11T07:33:57;60.33;;;25.73;;
26277;SDS011;14000;52.056;8.510;2024-01-11T07:36:22;67.33;;;25.83;;
26277;SDS011;14000;52.056;8.510;2024-01-11T07:38:48;66.87;;;26.77;;
26277;SDS011;14000;52.056;8.510;2024-01-11T07:41:14;65.13;;;26.77;;
26277;SDS011;14000;52.056;8.510;2024-01-11T07:43:39;66.43;;;27.03;;
26277;SDS011;14000;52.056;8.510;2024-01-11T07:46:05;66.70;;;26.52;;
26277;SDS011;14000;52.056;8.510;2024-01-11T07:48:32;63.75;;;26.85;;
26277;SDS011;14000;52.056;8.510;2024-01-11T07:50:58;66.27;;;25.80;;
26277;SDS011;14000;52.056;8.510;2024-01-11T07:53:24;66.53;;;26.75;;
26277;SDS011;14000;52.056;8.510;2024-01-11T07:55:50;62.75;;;26.42;;
26277;SDS011;14000;52.056;8.510;2024-01-11T07:58:16;76.83;;;27.43;;
26277;SDS011;14000;52.056;8.510;2024-01-11T08:00:42;65.63;;;26.90;;
26277;SDS011;14000;52.056;8.510;2024-01-11T08:03:07;69.97;;;27.43;;
26277;SDS011;14000;52.056;8.510;2024-01-11T08:05:33;66.43;;;27.07;;
26277;SDS011;14000;52.056;8.510;2024-01-11T08:07:59;71.40;;;28.33;;
26277;SDS011;14000;52.056;8.510;2024-01-11T08:10:28;64.53;;;27.85;;
26277;SDS011;14000;52.056;8.510;2024-01-11T08:12:53;66.40;;;26.87;;
26277;SDS011;14000;52.056;8.510;2024-01-11T08:15:20;68.55;;;27.08;;
26277;SDS011;14000;52.056;8.510;2024-01-11T08:17:45;63.17;;;26.07;;
26277;SDS011;14000;52.056;8.510;2024-01-11T08:20:11;64.53;;;27.13;;
26277;SDS011;14000;52.056;8.510;2024-01-11T08:22:40;68.17;;;27.20;;
26277;SDS011;14000;52.056;8.510;2024-01-11T08:25:08;69.75;;;28.63;;
26277;SDS011;14000;52.056;8.510;2024-01-11T08:27:34;61.05;;;27.48;;
26277;SDS011;14000;52.056;8.510;2024-01-11T08:30:00;66.20;;;29.02;;
26277;SDS011;14000;52.056;8.510;2024-01-11T08:32:26;65.20;;;29.33;;
26277;SDS011;14000;52.056;8.510;2024-01-11T08:34:52;68.53;;;29.97;;
26277;SDS011;14000;52.056;8.510;2024-01-11T08:37:17;64.30;;;27.30;;
26277;SDS011;14000;52.056;8.510;2024-01-11T08:39:43;61.90;;;27.03;;
26277;SDS011;14000;52.056;8.510;2024-01-11T08:42:11;63.67;;;27.40;;
26277;SDS011;14000;52.056;8.510;2024-01-11T08:44:36;57.37;;;24.47;;
26277;SDS011;14000;52.056;8.510;2024-01-11T08:47:06;62.15;;;26.27;;
26277;SDS011;14000;52.056;8.510;2024-01-11T08:49:32;63.70;;;25.33;;
26277;SDS011;14000;52.056;8.510;2024-01-11T08:51:57;60.57;;;24.63;;
26277;SDS011;14000;52.056;8.510;2024-01-11T08:54:23;64.33;;;26.97;;
26277;SDS011;14000;52.056;8.510;2024-01-11T08:56:48;61.43;;;25.43;;
26277;SDS011;14000;52.056;8.510;2024-01-11T08:59:14;63.63;;;26.30;;
26277;SDS011;14000;52.056;8.510;2024-01-11T09:01:40;59.37;;;25.70;;
26277;SDS011;14000;52.056;8.510;2024-01-11T09:04:05;63.13;;;27.70;;
26277;SDS011;14000;52.056;8.510;2024-01-11T09:06:31;61.77;;;24.43;;
26277;SDS011;14000;52.056;8.510;2024-01-11T09:08:58;61.65;;;27.52;;
26277;SDS011;14000;52.056;8.510;2024-01-11T09:11:24;64.57;;;27.23;;
26277;SDS011;14000;52.056;8.510;2024-01-11T09:13:49;55.40;;;23.33;;
26277;SDS011;14000;52.056;8.510;2024-01-11T09:16:16;64.43;;;26.10;;
26277;SDS011;14000;52.056;8.510;2024-01-11T09:18:42;61.00;;;26.57;;
26277;SDS011;14000;52.056;8.510;2024-01-11T09:21:08;62.90;;;26.10;;
26277;SDS011;14000;52.056;8.510;2024-01-11T09:23:34;70.83;;;27.53;;
26277;SDS011;14000;52.056;8.510;2024-01-11T09:26:00;63.88;;;27.45;;
26277;SDS011;14000;52.056;8.510;2024-01-11T09:28:26;62.20;;;25.10;;
26277;SDS011;14000;52.056;8.510;2024-01-11T09:30:51;60.00;;;26.03;;
26277;SDS011;14000;52.056;8.510;2024-01-11T09:33:17;52.53;;;24.83;;
26277;SDS011;14000;52.056;8.510;2024-01-11T09:35:42;58.67;;;26.90;;
26277;SDS011;14000;52.056;8.510;2024-01-11T09:38:08;57.20;;;25.63;;
26277;SDS011;14000;52.056;8.510;2024-01-11T09:40:34;64.43;;;25.40;;
26277;SDS011;14000;52.056;8.510;2024-01-11T09:43:00;61.67;;;25.80;;
26277;SDS011;14000;52.056;8.510;2024-01-11T09:45:29;58.47;;;25.40;;
26277;SDS011;14000;52.056;8.510;2024-01-11T09:47:54;61.27;;;26.17;;
26277;SDS011;14000;52.056;8.510;2024-01-11T09:50:20;68.87;;;30.80;;
26277;SDS011;14000;52.056;8.510;2024-01-11T09:52:48;89.45;;;49.38;;
26277;SDS011;14000;52.056;8.510;2024-01-11T09:55:15;70.78;;;35.03;;
26277;SDS011;14000;52.056;8.510;2024-01-11T09:57:45;64.63;;;27.55;;
26277;SDS011;14000;52.056;8.510;2024-01-11T10:00:13;64.88;;;26.60;;
26277;SDS011;14000;52.056;8.510;2024-01-11T10:02:41;61.85;;;25.85;;
26277;SDS011;14000;52.056;8.510;2024-01-11T10:05:07;58.70;;;25.03;;
26277;SDS011;14000;52.056;8.510;2024-01-11T10:07:33;61.13;;;26.47;;
26277;SDS011;14000;52.056;8.510;2024-01-11T10:09:59;62.10;;;25.83;;
26277;SDS011;14000;52.056;8.510;2024-01-11T10:12:26;57.30;;;25.63;;
26277;SDS011;14000;52.056;8.510;2024-01-11T10:14:52;56.75;;;23.92;;
26277;SDS011;14000;52.056;8.510;2024-01-11T10:17:19;56.97;;;24.33;;
26277;SDS011;14000;52.056;8.510;2024-01-11T10:19:44;66.23;;;26.17;;
26277;SDS011;14000;52.056;8.510;2024-01-11T10:22:10;59.93;;;25.80;;
26277;SDS011;14000;52.056;8.510;2024-01-11T10:24:41;56.67;;;25.65;;
26277;SDS011;14000;52.056;8.510;2024-01-11T10:27:10;56.47;;;25.67;;
26277;SDS011;14000;52.056;8.510;2024-01-11T10:29:36;52.70;;;24.90;;
26277;SDS011;14000;52.056;8.510;2024-01-11T10:32:05;57.40;;;25.00;;
26277;SDS011;14000;52.056;8.510;2024-01-11T10:34:31;59.53;;;25.70;;
26277;SDS011;14000;52.056;8.510;2024-01-11T10:36:56;56.03;;;24.60;;
26277;SDS011;14000;52.056;8.510;2024-01-11T10:39:23;57.27;;;25.03;;
26277;SDS011;14000;52.056;8.510;2024-01-11T10:44:32;54.38;;;25.20;;
26277;SDS011;14000;52.056;8.510;2024-01-11T10:46:59;51.93;;;24.17;;
26277;SDS011;14000;52.056;8.510;2024-01-11T10:49:28;54.90;;;23.30;;
26277;SDS011;14000;52.056;8.510;2024-01-11T10:51:59;52.23;;;22.63;;
26277;SDS011;14000;52.056;8.510;2024-01-11T10:54:27;52.80;;;23.45;;
26277;SDS011;14000;52.056;8.510;2024-01-11T10:56:54;53.73;;;23.73;;
26277;SDS011;14000;52.056;8.510;2024-01-11T10:59:21;48.30;;;22.17;;
26277;SDS011;14000;52.056;8.510;2024-01-11T11:01:53;51.07;;;22.00;;
26277;SDS011;14000;52.056;8.510;2024-01-11T11:04:21;52.95;;;24.20;;
26277;SDS011;14000;52.056;8.510;2024-01-11T11:06:52;50.27;;;22.87;;
26277;SDS011;14000;52.056;8.510;2024-01-11T11:09:22;51.17;;;22.37;;
26277;SDS011;14000;52.056;8.510;2024-01-11T11:11:48;50.37;;;23.33;;
26277;SDS011;14000;52.056;8.510;2024-01-11T11:14:14;50.77;;;21.53;;
26277;SDS011;14000;52.056;8.510;2024-01-11T11:16:40;49.63;;;21.40;;
26277;SDS011;14000;52.056;8.510;2024-01-11T11:19:07;49.97;;;21.13;;
26277;SDS011;14000;52.056;8.510;2024-01-11T11:21:41;47.77;;;22.30;;
26277;SDS011;14000;52.056;8.510;2024-01-11T11:24:07;49.87;;;21.67;;
26277;SDS011;14000;52.056;8.510;2024-01-11T11:26:33;48.07;;;20.67;;
26277;SDS011;14000;52.056;8.510;2024-01-11T11:29:00;48.23;;;21.27;;
26277;SDS011;14000;52.056;8.510;2024-01-11T11:31:44;47.20;;;20.13;;
26277;SDS011;14000;52.056;8.510;2024-01-11T11:34:19;50.97;;;20.87;;
26277;SDS011;14000;52.056;8.510;2024-01-11T11:36:48;56.80;;;22.23;;
26277;SDS011;14000;52.056;8.510;2024-01-11T11:39:19;56.03;;;21.73;;
26277;SDS011;14000;52.056;8.510;2024-01-11T11:41:45;48.70;;;21.10;;
26277;SDS011;14000;52.056;8.510;2024-01-11T11:44:12;49.77;;;20.63;;
26277;SDS011;14000;52.056;8.510;2024-01-11T11:46:40;55.33;;;23.13;;
26277;SDS011;14000;52.056;8.510;2024-01-11T11:49:06;58.03;;;24.27;;
26277;SDS011;14000;52.056;8.510;2024-01-11T11:51:32;70.47;;;24.20;;
26277;SDS011;14000;52.056;8.510;2024-01-11T11:53:58;58.73;;;24.60;;
26277;SDS011;14000;52.056;8.510;2024-01-11T11:56:24;53.80;;;21.57;;
26277;SDS011;14000;52.056;8.510;2024-01-11T11:58:50;52.53;;;21.60;;
26277;SDS011;14000;52.056;8.510;2024-01-11T12:01:17;56.67;;;21.40;;
26277;SDS011;14000;52.056;8.510;2024-01-11T12:03:43;58.20;;;22.53;;
26277;SDS011;14000;52.056;8.510;2024-01-11T12:06:16;56.50;;;21.50;;
26277;SDS011;14000;52.056;8.510;2024-01-11T12:08:43;59.10;;;21.73;;
26277;SDS011;14000;52.056;8.510;2024-01-11T12:11:12;58.50;;;23.13;;
26277;SDS011;14000;52.056;8.510;2024-01-11T12:13:39;57.93;;;22.13;;
26277;SDS011;14000;52.056;8.510;2024-01-11T12:16:05;57.00;;;22.43;;
26277;SDS011;14000;52.056;8.510;2024-01-11T12:18:31;62.97;;;23.27;;
26277;SDS011;14000;52.056;8.510;2024-01-11T12:20:57;54.27;;;22.00;;
26277;SDS011;14000;52.056;8.510;2024-01-11T12:23:22;60.40;;;22.93;;
26277;SDS011;14000;52.056;8.510;2024-01-11T12:25:48;54.63;;;22.60;;
26277;SDS011;14000;52.056;8.510;2024-01-11T12:28:14;56.37;;;22.90;;
26277;SDS011;14000;52.056;8.510;2024-01-11T12:30:40;63.37;;;23.50;;
26277;SDS011;14000;52.056;8.510;2024-01-11T12:33:06;50.73;;;21.17;;
26277;SDS011;14000;52.056;8.510;2024-01-11T12:35:32;57.23;;;23.43;;
26277;SDS011;14000;52.056;8.510;2024-01-11T12:37:59;59.30;;;23.47;;
26277;SDS011;14000;52.056;8.510;2024-01-11T12:40:28;55.30;;;21.73;;
26277;SDS011;14000;52.056;8.510;2024-01-11T12:42:57;58.10;;;22.40;;
26277;SDS011;14000;52.056;8.510;2024-01-11T12:45:24;56.37;;;21.87;;
26277;SDS011;14000;52.056;8.510;2024-01-11T12:47:51;55.23;;;21.07;;
26277;SDS011;14000;52.056;8.510;2024-01-11T12:50:17;61.00;;;22.50;;
26277;SDS011;14000;52.056;8.510;2024-01-11T12:52:43;52.57;;;20.47;;
26277;SDS011;14000;52.056;8.510;2024-01-11T12:55:17;52.87;;;20.33;;
26277;SDS011;14000;52.056;8.510;2024-01-11T12:57:43;50.17;;;19.30;;
26277;SDS011;14000;52.056;8.510;2024-01-11T13:00:13;55.27;;;19.63;;
26277;SDS011;14000;52.056;8.510;2024-01-11T13:02:42;54.37;;;19.00;;
26277;SDS011;14000;52.056;8.510;2024-01-11T13:05:12;60.67;;;20.70;;
26277;SDS011;14000;52.056;8.510;2024-01-11T13:07:39;54.33;;;20.00;;
26277;SDS011;14000;52.056;8.510;2024-01-11T13:10:04;55.97;;;19.93;;
26277;SDS011;14000;52.056;8.510;2024-01-11T13:12:30;52.23;;;19.60;;
26277;SDS011;14000;52.056;8.510;2024-01-11T13:14:56;48.63;;;19.87;;
26277;SDS011;14000;52.056;8.510;2024-01-11T13:17:22;53.53;;;19.10;;
26277;SDS011;14000;52.056;8.510;2024-01-11T13:19:47;57.50;;;19.47;;
26277;SDS011;14000;52.056;8.510;2024-01-11T13:22:13;48.63;;;19.37;;
26277;SDS011;14000;52.056;8.510;2024-01-11T13:24:39;54.83;;;20.80;;
26277;SDS011;14000;52.056;8.510;2024-01-11T13:27:04;50.80;;;18.97;;
26277;SDS011;14000;52.056;8.510;2024-01-11T13:29:30;51.57;;;19.60;;
26277;SDS011;14000;52.056;8.510;2024-01-11T13:31:55;57.80;;;20.67;;
26277;SDS011;14000;52.056;8.510;2024-01-11T13:34:21;53.13;;;21.03;;
26277;SDS011;14000;52.056;8.510;2024-01-11T13:36:46;51.03;;;20.17;;
26277;SDS011;14000;52.056;8.510;2024-01-11T13:39:12;56.00;;;21.30;;
26277;SDS011;14000;52.056;8.510;2024-01-11T13:41:37;55.50;;;19.13;;
26277;SDS011;14000;52.056;8.510;2024-01-11T13:44:05;54.30;;;19.97;;
26277;SDS011;14000;52.056;8.510;2024-01-11T13:46:32;57.97;;;21.33;;
26277;SDS011;14000;52.056;8.510;2024-01-11T13:48:57;52.90;;;19.40;;
26277;SDS011;14000;52.056;8.510;2024-01-11T13:51:23;49.43;;;18.50;;
26277;SDS011;14000;52.056;8.510;2024-01-11T13:53:49;48.60;;;18.83;;
26277;SDS011;14000;52.056;8.510;2024-01-11T13:56:14;47.07;;;18.37;;
26277;SDS011;14000;52.056;8.510;2024-01-11T13:58:40;45.17;;;17.20;;
26277;SDS011;14000;52.056;8.510;2024-01-11T14:01:06;44.60;;;18.10;;
26277;SDS011;14000;52.056;8.510;2024-01-11T14:03:32;51.67;;;19.40;;
26277;SDS011;14000;52.056;8.510;2024-01-11T14:05:58;45.40;;;18.83;;
26277;SDS011;14000;52.056;8.510;2024-01-11T14:08:25;44.93;;;17.50;;
26277;SDS011;14000;52.056;8.510;2024-01-11T14:10:50;45.73;;;17.43;;
26277;SDS011;14000;52.056;8.510;2024-01-11T14:13:16;42.73;;;15.73;;
26277;SDS011;14000;52.056;8.510;2024-01-11T14:15:42;43.80;;;18.43;;
26277;SDS011;14000;52.056;8.510;2024-01-11T14:18:08;45.93;;;18.10;;